Terminal Aerodrome Forecast
Issued by NWS

Home | Current Version | Previous Version | Text Only | Print | Product List | Glossary On
Versions: 1 2 3 4 5 6 7 8 9 10 11 12 13 14
000
FTUS43 KAPX 250216 AAB
TAFPLN
TAF AMD
KPLN 250216Z 2502/2524 VRB03KT 6SM BR BKN050
     FM250500 00000KT 3SM BR SCT040
     FM250900 VRB03KT 1SM BR BKN008
     FM251400 06005KT P6SM SCT040
     FM251800 08008KT P6SM SCT250=

USA.gov is the U.S. government's official web portal to all federal, state and local government web resources and services.